createdAt,value
2018-08-07T00:00:07.044Z,0.00
2018-08-07T00:01:07.069Z,0.00
2018-08-07T00:02:07.137Z,0.00
2018-08-07T00:03:07.113Z,0.00
2018-08-07T00:04:07.141Z,0.00
2018-08-07T00:05:07.154Z,0.00
2018-08-07T00:06:07.180Z,0.00
2018-08-07T00:07:07.197Z,0.00
2018-08-07T00:08:07.218Z,0.00
2018-08-07T00:09:07.243Z,0.00
2018-08-07T00:10:07.261Z,0.00
2018-08-07T00:11:07.309Z,0.00
2018-08-07T00:12:07.305Z,0.00
2018-08-07T00:13:07.335Z,0.00
2018-08-07T00:14:07.497Z,0.00
2018-08-07T00:15:07.386Z,0.00
2018-08-07T00:16:07.393Z,0.00
2018-08-07T00:17:07.410Z,0.00
2018-08-07T00:18:07.455Z,0.00
2018-08-07T00:19:07.456Z,0.00
2018-08-07T00:20:07.476Z,0.00
2018-08-07T00:21:07.500Z,0.00
2018-08-07T00:22:07.718Z,0.00
2018-08-07T00:23:07.546Z,0.00
2018-08-07T00:24:07.560Z,0.00
2018-08-07T00:25:07.580Z,0.00
2018-08-07T00:26:07.604Z,0.00
2018-08-07T00:27:07.624Z,0.00
2018-08-07T00:28:07.644Z,0.00
2018-08-07T00:29:07.671Z,0.00
2018-08-07T00:30:07.693Z,0.00
2018-08-07T00:31:07.708Z,0.00
2018-08-07T00:32:07.734Z,0.00
2018-08-07T00:33:07.756Z,0.00
2018-08-07T00:34:07.772Z,0.00
2018-08-07T00:35:07.796Z,0.00
2018-08-07T00:36:07.815Z,0.00
2018-08-07T00:37:07.838Z,0.00
2018-08-07T00:38:07.860Z,0.00
2018-08-07T00:39:07.881Z,0.00
2018-08-07T00:40:07.914Z,0.00
2018-08-07T00:41:07.933Z,0.00
2018-08-07T00:42:07.956Z,0.00
2018-08-07T00:43:08.000Z,0.00
2018-08-07T00:44:08.022Z,0.00
2018-08-07T00:45:08.021Z,0.00
2018-08-07T00:46:08.032Z,0.00
2018-08-07T00:47:08.247Z,0.00
2018-08-07T00:48:08.081Z,0.00
2018-08-07T00:49:08.096Z,0.00
2018-08-07T00:50:08.179Z,0.00
2018-08-07T00:51:08.132Z,0.00
2018-08-07T00:52:08.169Z,0.00
2018-08-07T00:53:08.180Z,0.00
2018-08-07T00:54:08.199Z,0.00
2018-08-07T00:55:08.220Z,0.00
2018-08-07T00:56:08.243Z,0.00
2018-08-07T00:57:08.268Z,0.00
2018-08-07T00:58:08.288Z,0.00
2018-08-07T00:59:08.307Z,0.00
2018-08-07T01:00:08.328Z,0.00
2018-08-07T01:01:08.352Z,0.00
2018-08-07T01:02:08.374Z,0.00
2018-08-07T01:03:08.393Z,0.00
2018-08-07T01:04:08.434Z,0.00
2018-08-07T01:05:08.439Z,0.00
2018-08-07T01:06:08.454Z,0.00
2018-08-07T01:07:08.475Z,0.00
2018-08-07T01:08:08.496Z,0.00
2018-08-07T01:09:08.519Z,0.00
2018-08-07T01:10:08.541Z,0.00
2018-08-07T01:11:08.590Z,0.00
2018-08-07T01:12:08.651Z,0.00
2018-08-07T01:13:08.605Z,0.00
2018-08-07T01:14:08.626Z,0.00
2018-08-07T01:15:08.690Z,0.00
2018-08-07T01:16:08.666Z,0.00
2018-08-07T01:17:08.689Z,0.00
2018-08-07T01:18:08.728Z,0.00
2018-08-07T01:19:08.750Z,0.00
2018-08-07T01:20:08.755Z,0.00
2018-08-07T01:21:08.781Z,0.00
2018-08-07T01:22:08.802Z,0.00
2018-08-07T01:23:08.820Z,0.00
2018-08-07T01:24:08.848Z,0.00
2018-08-07T01:25:08.875Z,0.00
2018-08-07T01:26:08.885Z,0.00
2018-08-07T01:27:09.119Z,0.00
2018-08-07T01:28:08.930Z,0.00
2018-08-07T01:29:08.946Z,0.00
2018-08-07T01:30:08.965Z,0.00
2018-08-07T01:31:09.031Z,0.00
2018-08-07T01:32:09.016Z,0.00
2018-08-07T01:33:09.031Z,0.00
2018-08-07T01:34:09.054Z,0.00
2018-08-07T01:35:09.092Z,0.00
2018-08-07T01:36:09.096Z,0.00
2018-08-07T01:37:09.151Z,0.00
2018-08-07T01:38:09.136Z,0.00
2018-08-07T01:39:09.158Z,0.00
2018-08-07T01:40:09.179Z,0.00
2018-08-07T01:41:09.201Z,0.00
2018-08-07T01:42:09.286Z,0.00
2018-08-07T01:43:09.386Z,0.00
2018-08-07T01:44:09.264Z,0.00
2018-08-07T01:45:09.289Z,0.00
2018-08-07T01:46:09.308Z,0.00
2018-08-07T01:47:09.335Z,0.00
2018-08-07T01:48:09.356Z,0.00
2018-08-07T01:49:09.373Z,0.00
2018-08-07T01:50:09.404Z,0.00
2018-08-07T01:51:09.412Z,0.00
2018-08-07T01:52:09.430Z,0.00
2018-08-07T01:53:09.455Z,0.00
2018-08-07T01:54:09.483Z,0.00
2018-08-07T01:55:09.496Z,0.00
2018-08-07T01:56:09.532Z,0.00
2018-08-07T01:57:09.541Z,0.00
2018-08-07T01:58:09.560Z,0.00
2018-08-07T01:59:09.578Z,0.00
2018-08-07T02:00:09.601Z,0.00
2018-08-07T02:01:09.622Z,0.00
2018-08-07T02:02:09.645Z,0.00
2018-08-07T02:03:09.663Z,0.00
2018-08-07T02:04:09.691Z,0.00
2018-08-07T02:05:09.708Z,0.00
2018-08-07T02:06:09.729Z,0.00
2018-08-07T02:07:09.754Z,0.00
2018-08-07T02:08:09.772Z,0.00
2018-08-07T02:09:09.791Z,0.00
2018-08-07T02:10:09.814Z,0.00
2018-08-07T02:11:09.834Z,0.00
2018-08-07T02:12:09.852Z,0.00
2018-08-07T02:13:09.875Z,0.00
2018-08-07T02:14:09.897Z,0.00
2018-08-07T02:15:09.921Z,0.00
2018-08-07T02:16:09.952Z,0.00
2018-08-07T02:17:09.958Z,0.00
2018-08-07T02:18:09.982Z,0.00
2018-08-07T02:19:10.003Z,0.00
2018-08-07T02:20:10.027Z,0.00
2018-08-07T02:21:10.045Z,0.00
2018-08-07T02:22:10.065Z,0.00
2018-08-07T02:23:10.089Z,0.00
2018-08-07T02:24:10.105Z,0.00
2018-08-07T02:25:10.130Z,0.00
2018-08-07T02:26:10.156Z,0.00
2018-08-07T02:27:10.168Z,0.00
2018-08-07T02:28:10.192Z,0.00
2018-08-07T02:29:10.211Z,0.00
2018-08-07T02:30:10.239Z,0.00
2018-08-07T02:31:10.261Z,0.00
2018-08-07T02:32:10.288Z,0.00
2018-08-07T02:33:10.298Z,0.00
2018-08-07T02:34:10.314Z,0.00
2018-08-07T02:35:10.348Z,0.00
2018-08-07T02:36:10.359Z,0.00
2018-08-07T02:37:10.387Z,0.00
2018-08-07T02:38:10.401Z,0.00
2018-08-07T02:39:10.426Z,0.00
2018-08-07T02:40:10.445Z,0.00
2018-08-07T02:41:10.467Z,0.00
2018-08-07T02:42:10.488Z,0.00
2018-08-07T02:43:10.507Z,0.00
2018-08-07T02:44:10.529Z,0.00
2018-08-07T02:45:10.547Z,0.00
2018-08-07T02:46:10.569Z,0.00
2018-08-07T02:47:10.593Z,0.00
2018-08-07T02:48:10.635Z,0.00
2018-08-07T02:49:10.665Z,0.00
2018-08-07T02:50:10.658Z,0.00
2018-08-07T02:51:10.684Z,0.00
2018-08-07T02:52:10.695Z,0.00
2018-08-07T02:53:10.716Z,0.00
2018-08-07T02:54:10.749Z,0.00
2018-08-07T02:55:10.763Z,0.00
2018-08-07T02:56:10.787Z,0.00
2018-08-07T02:57:10.803Z,0.00
2018-08-07T02:58:10.867Z,0.00
2018-08-07T02:59:10.846Z,0.00
2018-08-07T03:00:10.864Z,0.00
2018-08-07T03:01:10.884Z,0.00
2018-08-07T03:02:10.906Z,0.00
2018-08-07T03:03:10.929Z,0.00
2018-08-07T03:04:10.957Z,0.00
2018-08-07T03:05:10.973Z,0.00
2018-08-07T03:06:10.988Z,0.00
2018-08-07T03:07:11.010Z,0.00
2018-08-07T03:08:11.033Z,0.00
2018-08-07T03:09:11.052Z,0.00
2018-08-07T03:10:11.073Z,0.00
2018-08-07T03:11:11.100Z,0.00
2018-08-07T03:12:11.118Z,0.00
2018-08-07T03:13:11.137Z,0.00
2018-08-07T03:14:11.164Z,0.00
2018-08-07T03:15:11.217Z,0.00
2018-08-07T03:16:11.201Z,0.00
2018-08-07T03:17:11.223Z,0.00
2018-08-07T03:18:11.241Z,0.00
2018-08-07T03:19:11.263Z,0.00
2018-08-07T03:20:11.282Z,0.00
2018-08-07T03:21:11.302Z,0.00
2018-08-07T03:22:11.326Z,0.00
2018-08-07T03:23:11.347Z,0.00
2018-08-07T03:24:11.371Z,0.00
2018-08-07T03:25:11.387Z,0.00
2018-08-07T03:26:11.410Z,0.00
2018-08-07T03:27:11.428Z,0.00
2018-08-07T03:28:11.449Z,0.00
2018-08-07T03:29:11.472Z,0.00
2018-08-07T03:30:11.493Z,0.00
2018-08-07T03:31:11.516Z,0.00
2018-08-07T03:32:11.535Z,0.00
2018-08-07T03:33:11.559Z,0.00
2018-08-07T03:34:11.575Z,0.00
2018-08-07T03:35:11.601Z,0.00
2018-08-07T03:36:11.616Z,0.00
2018-08-07T03:37:11.641Z,0.00
2018-08-07T03:38:11.664Z,0.00
2018-08-07T03:39:11.696Z,0.00
2018-08-07T03:40:11.706Z,0.00
2018-08-07T03:41:11.725Z,5.63
2018-08-07T03:42:11.746Z,5.63
2018-08-07T03:43:11.765Z,5.63
2018-08-07T03:44:11.787Z,5.63
2018-08-07T03:45:11.811Z,5.63
2018-08-07T03:46:11.827Z,5.63
2018-08-07T03:47:11.849Z,5.63
2018-08-07T03:48:11.871Z,11.25
2018-08-07T03:49:11.894Z,11.25
2018-08-07T03:50:11.912Z,11.25
2018-08-07T03:51:11.934Z,11.25
2018-08-07T03:52:12.019Z,11.25
2018-08-07T03:53:12.008Z,16.88
2018-08-07T03:54:12.016Z,16.88
2018-08-07T03:55:12.017Z,16.88
2018-08-07T03:56:12.039Z,16.88
2018-08-07T03:57:12.059Z,22.50
2018-08-07T03:58:12.085Z,22.50
2018-08-07T03:59:12.112Z,22.50
2018-08-07T04:00:12.126Z,28.13
2018-08-07T04:01:12.144Z,28.13
2018-08-07T04:02:12.167Z,28.13
2018-08-07T04:03:12.185Z,33.75
2018-08-07T04:04:12.219Z,33.75
2018-08-07T04:05:12.231Z,33.75
2018-08-07T04:06:12.252Z,39.38
2018-08-07T04:07:12.270Z,39.38
2018-08-07T04:08:12.292Z,45.00
2018-08-07T04:09:12.315Z,45.00
2018-08-07T04:10:12.366Z,45.00
2018-08-07T04:11:12.362Z,50.63
2018-08-07T04:12:12.376Z,50.63
2018-08-07T04:13:12.418Z,56.25
2018-08-07T04:14:12.427Z,56.25
2018-08-07T04:15:12.497Z,61.88
2018-08-07T04:16:12.462Z,61.88
2018-08-07T04:17:12.478Z,67.50
2018-08-07T04:18:12.500Z,73.13
2018-08-07T04:19:12.519Z,73.13
2018-08-07T04:20:12.544Z,78.75
2018-08-07T04:21:12.562Z,78.75
2018-08-07T04:22:12.587Z,84.38
2018-08-07T04:23:12.605Z,90.00
2018-08-07T04:24:12.624Z,90.00
2018-08-07T04:25:12.645Z,95.63
2018-08-07T04:26:12.781Z,101.25
2018-08-07T04:27:12.690Z,101.25
2018-08-07T04:28:12.708Z,106.88
2018-08-07T04:29:12.731Z,112.50
2018-08-07T04:30:12.752Z,118.13
2018-08-07T04:31:12.771Z,123.75
2018-08-07T04:32:12.802Z,123.75
2018-08-07T04:33:12.816Z,123.75
2018-08-07T04:34:12.838Z,129.38
2018-08-07T04:35:12.860Z,135.00
2018-08-07T04:36:12.881Z,140.63
2018-08-07T04:37:12.897Z,146.25
2018-08-07T04:38:12.918Z,151.88
2018-08-07T04:39:12.936Z,157.50
2018-08-07T04:40:12.968Z,157.50
2018-08-07T04:41:12.988Z,163.13
2018-08-07T04:42:13.006Z,168.75
2018-08-07T04:43:13.023Z,174.38
2018-08-07T04:44:13.141Z,180.00
2018-08-07T04:45:13.206Z,185.63
2018-08-07T04:46:13.194Z,191.25
2018-08-07T04:47:13.217Z,196.88
2018-08-07T04:48:13.230Z,202.50
2018-08-07T04:49:13.253Z,208.13
2018-08-07T04:50:13.196Z,213.75
2018-08-07T04:51:13.225Z,219.38
2018-08-07T04:52:13.261Z,230.63
2018-08-07T04:53:13.237Z,236.25
2018-08-07T04:54:13.265Z,236.25
2018-08-07T04:55:13.288Z,247.50
2018-08-07T04:56:13.305Z,258.75
2018-08-07T04:57:13.324Z,270.00
2018-08-07T04:58:13.344Z,286.88
2018-08-07T04:59:13.362Z,298.13
2018-08-07T05:00:13.386Z,489.38
2018-08-07T05:01:13.536Z,781.88
2018-08-07T05:02:13.425Z,832.50
2018-08-07T05:03:13.447Z,843.75
2018-08-07T05:04:13.471Z,871.88
2018-08-07T05:05:13.495Z,888.75
2018-08-07T05:06:13.519Z,894.38
2018-08-07T05:07:13.533Z,916.88
2018-08-07T05:08:13.558Z,956.25
2018-08-07T05:09:13.581Z,961.88
2018-08-07T05:10:13.645Z,990.00
2018-08-07T05:11:13.627Z,1029.38
2018-08-07T05:12:13.651Z,1051.88
2018-08-07T05:13:13.675Z,1096.88
2018-08-07T05:14:13.766Z,1085.63
2018-08-07T05:15:13.723Z,1096.88
2018-08-07T05:16:13.745Z,1141.88
2018-08-07T05:17:13.776Z,1125.00
2018-08-07T05:18:13.796Z,1080.00
2018-08-07T05:19:13.825Z,1074.38
2018-08-07T05:20:13.849Z,1091.25
2018-08-07T05:21:13.871Z,1108.13
2018-08-07T05:22:13.897Z,1125.00
2018-08-07T05:23:13.922Z,1164.38
2018-08-07T05:24:13.950Z,1186.88
2018-08-07T05:25:13.976Z,1164.38
2018-08-07T05:26:13.998Z,1198.13
2018-08-07T05:27:14.024Z,1231.88
2018-08-07T05:28:14.050Z,1220.63
2018-08-07T05:29:14.075Z,1243.13
2018-08-07T05:30:14.102Z,1265.63
2018-08-07T05:31:14.129Z,1321.88
2018-08-07T05:32:14.159Z,1350.00
2018-08-07T05:33:14.181Z,1327.50
2018-08-07T05:34:14.207Z,1333.13
2018-08-07T05:35:14.237Z,1366.88
2018-08-07T05:36:14.265Z,1406.25
2018-08-07T05:37:14.292Z,1417.50
2018-08-07T05:38:14.321Z,1411.88
2018-08-07T05:39:14.352Z,1423.13
2018-08-07T05:40:14.373Z,1462.50
2018-08-07T05:41:14.399Z,1445.63
2018-08-07T05:42:14.443Z,1462.50
2018-08-07T05:43:14.455Z,1451.25
2018-08-07T05:44:14.485Z,1456.88
2018-08-07T05:45:14.509Z,1445.63
2018-08-07T05:46:14.538Z,1462.50
2018-08-07T05:47:14.565Z,1462.50
2018-08-07T05:48:14.592Z,1445.63
2018-08-07T05:49:14.624Z,1473.75
2018-08-07T05:50:14.727Z,1473.75
2018-08-07T05:51:14.998Z,1468.13
2018-08-07T05:52:14.708Z,1530.00
2018-08-07T05:53:14.736Z,1558.13
2018-08-07T05:54:14.765Z,1485.00
2018-08-07T05:55:14.834Z,1468.13
2018-08-07T05:56:14.823Z,1597.50
2018-08-07T05:57:14.848Z,1620.00
2018-08-07T05:58:14.876Z,1653.75
2018-08-07T05:59:14.915Z,1670.63
2018-08-07T06:00:14.939Z,1693.13
2018-08-07T06:01:14.963Z,1710.00
2018-08-07T06:02:14.995Z,1721.25
2018-08-07T06:03:15.028Z,1760.63
2018-08-07T06:04:15.054Z,1755.00
2018-08-07T06:05:15.111Z,1805.63
2018-08-07T06:06:15.114Z,1856.25
2018-08-07T06:07:15.141Z,1890.00
2018-08-07T06:08:15.173Z,1839.38
2018-08-07T06:09:15.202Z,1777.50
2018-08-07T06:10:15.234Z,1833.75
2018-08-07T06:11:15.265Z,1839.38
2018-08-07T06:12:15.289Z,1783.13
2018-08-07T06:13:15.319Z,1805.63
2018-08-07T06:14:15.350Z,1822.50
2018-08-07T06:15:15.389Z,1665.00
2018-08-07T06:16:15.409Z,1704.38
2018-08-07T06:17:15.453Z,1653.75
2018-08-07T06:18:15.471Z,1558.13
2018-08-07T06:19:15.510Z,1743.75
2018-08-07T06:20:15.531Z,1710.00
2018-08-07T06:21:15.564Z,1743.75
2018-08-07T06:22:15.592Z,1715.63
2018-08-07T06:23:15.622Z,1743.75
2018-08-07T06:24:15.651Z,1816.88
2018-08-07T06:25:15.688Z,1845.00
2018-08-07T06:26:15.716Z,1856.25
2018-08-07T06:27:15.754Z,1845.00
2018-08-07T06:28:15.781Z,1839.38
2018-08-07T06:29:15.810Z,1822.50
2018-08-07T06:30:15.844Z,1794.38
2018-08-07T06:31:15.871Z,1755.00
2018-08-07T06:32:15.907Z,1828.13
2018-08-07T06:33:15.932Z,1771.88
2018-08-07T06:34:15.964Z,1051.88
2018-08-07T06:35:15.996Z,1276.88
2018-08-07T06:36:16.027Z,1513.13
2018-08-07T06:37:16.059Z,1012.50
2018-08-07T06:38:16.088Z,714.38
2018-08-07T06:39:16.116Z,725.63
2018-08-07T06:40:16.148Z,916.88
2018-08-07T06:41:16.177Z,793.13
2018-08-07T06:42:16.208Z,1299.38
2018-08-07T06:43:16.253Z,1693.13
2018-08-07T06:44:16.271Z,1822.50
2018-08-07T06:45:16.300Z,1850.63
2018-08-07T06:46:16.329Z,1805.63
2018-08-07T06:47:16.364Z,1951.88
2018-08-07T06:48:16.386Z,1946.25
2018-08-07T06:49:16.417Z,793.13
2018-08-07T06:50:16.527Z,736.88
2018-08-07T06:51:16.477Z,798.75
2018-08-07T06:52:16.507Z,770.63
2018-08-07T06:53:16.534Z,2008.13
2018-08-07T06:54:16.566Z,1760.63
2018-08-07T06:55:16.592Z,1968.75
2018-08-07T06:56:16.634Z,1918.13
2018-08-07T06:57:16.655Z,2075.63
2018-08-07T06:58:16.683Z,2075.63
2018-08-07T06:59:16.711Z,2160.00
2018-08-07T07:00:16.741Z,2289.38
2018-08-07T07:01:16.773Z,2328.75
2018-08-07T07:02:16.815Z,2452.50
2018-08-07T07:03:16.830Z,2261.25
2018-08-07T07:04:16.864Z,2283.75
2018-08-07T07:05:16.895Z,2233.13
2018-08-07T07:06:16.927Z,2160.00
2018-08-07T07:07:16.952Z,2311.88
2018-08-07T07:08:16.983Z,2238.75
2018-08-07T07:09:17.031Z,2109.38
2018-08-07T07:10:17.048Z,2272.50
2018-08-07T07:11:17.079Z,2345.63
2018-08-07T07:12:17.113Z,2221.88
2018-08-07T07:13:17.140Z,2317.50
2018-08-07T07:14:17.173Z,2407.50
2018-08-07T07:15:17.203Z,2261.25
2018-08-07T07:16:17.247Z,2261.25
2018-08-07T07:17:17.271Z,2176.88
2018-08-07T07:18:17.308Z,2165.63
2018-08-07T07:19:17.328Z,2041.88
2018-08-07T07:20:17.360Z,2086.88
2018-08-07T07:21:17.393Z,2221.88
2018-08-07T07:22:17.425Z,2013.75
2018-08-07T07:23:17.457Z,2098.13
2018-08-07T07:24:17.497Z,2289.38
2018-08-07T07:25:17.525Z,2300.63
2018-08-07T07:26:17.554Z,2306.25
2018-08-07T07:27:17.588Z,2300.63
2018-08-07T07:28:17.615Z,2148.75
2018-08-07T07:29:17.647Z,2160.00
2018-08-07T07:30:17.692Z,2362.50
2018-08-07T07:31:17.715Z,2351.25
2018-08-07T07:32:17.745Z,2171.25
2018-08-07T07:33:17.777Z,2221.88
2018-08-07T07:34:17.936Z,905.63
2018-08-07T07:35:17.839Z,883.13
2018-08-07T07:36:17.895Z,860.63
2018-08-07T07:37:17.904Z,815.63
2018-08-07T07:38:17.937Z,793.13
2018-08-07T07:39:17.974Z,787.50
2018-08-07T07:40:18.003Z,787.50
2018-08-07T07:41:18.033Z,810.00
2018-08-07T07:42:18.067Z,1479.38
2018-08-07T07:43:18.093Z,1906.88
2018-08-07T07:44:18.133Z,2311.88
2018-08-07T07:45:18.155Z,2115.00
2018-08-07T07:46:18.183Z,2278.13
2018-08-07T07:47:18.232Z,2233.13
2018-08-07T07:48:18.247Z,2199.38
2018-08-07T07:49:18.284Z,2171.25
2018-08-07T07:50:18.309Z,2041.88
2018-08-07T07:51:18.332Z,2036.25
2018-08-07T07:52:18.363Z,2171.25
2018-08-07T07:53:18.398Z,2244.38
2018-08-07T07:54:18.423Z,2238.75
2018-08-07T07:55:18.451Z,2210.63
2018-08-07T07:56:18.491Z,2199.38
2018-08-07T07:57:18.518Z,2278.13
2018-08-07T07:58:18.552Z,2216.25
2018-08-07T07:59:18.580Z,2126.25
2018-08-07T08:00:18.609Z,2182.50
2018-08-07T08:01:18.645Z,2205.00
2018-08-07T08:02:18.674Z,2182.50
2018-08-07T08:03:18.703Z,2137.50
2018-08-07T08:04:18.734Z,2199.38
2018-08-07T08:05:18.844Z,2283.75
2018-08-07T08:06:18.799Z,2188.13
2018-08-07T08:07:18.837Z,2165.63
2018-08-07T08:08:18.859Z,2227.50
2018-08-07T08:09:18.890Z,2205.00
2018-08-07T08:10:18.953Z,2148.75
2018-08-07T08:11:18.961Z,2160.00
2018-08-07T08:12:18.984Z,2250.00
2018-08-07T08:13:19.016Z,2188.13
2018-08-07T08:14:19.051Z,2103.75
2018-08-07T08:15:19.087Z,2075.63
2018-08-07T08:16:19.112Z,2143.13
2018-08-07T08:17:19.143Z,2143.13
2018-08-07T08:18:19.178Z,2036.25
2018-08-07T08:19:19.213Z,1974.38
2018-08-07T08:20:19.244Z,2098.13
2018-08-07T08:21:19.272Z,2025.00
2018-08-07T08:22:19.309Z,2070.00
2018-08-07T08:23:19.338Z,2070.00
2018-08-07T08:24:19.367Z,1968.75
2018-08-07T08:25:19.401Z,1513.13
2018-08-07T08:26:19.444Z,1743.75
2018-08-07T08:27:19.466Z,2193.75
2018-08-07T08:28:19.500Z,2272.50
2018-08-07T08:29:19.669Z,2255.63
2018-08-07T08:30:19.564Z,2255.63
2018-08-07T08:31:19.591Z,1935.00
2018-08-07T08:32:19.621Z,1839.38
2018-08-07T08:33:19.651Z,1901.25
2018-08-07T08:34:19.706Z,1816.88
2018-08-07T08:35:19.772Z,1681.88
2018-08-07T08:36:19.750Z,1771.88
2018-08-07T08:37:19.775Z,1181.25
2018-08-07T08:38:19.809Z,646.88
2018-08-07T08:39:19.838Z,607.50
2018-08-07T08:40:19.865Z,585.00
2018-08-07T08:41:19.898Z,573.75
2018-08-07T08:42:19.928Z,568.13
2018-08-07T08:43:20.004Z,556.88
2018-08-07T08:44:19.984Z,551.25
2018-08-07T08:45:20.015Z,545.63
2018-08-07T08:46:20.045Z,540.00
2018-08-07T08:47:20.072Z,534.38
2018-08-07T08:48:20.165Z,528.75
2018-08-07T08:49:20.129Z,528.75
2018-08-07T08:50:20.156Z,523.13
2018-08-07T08:51:20.186Z,517.50
2018-08-07T08:52:20.221Z,511.88
2018-08-07T08:53:20.243Z,506.25
2018-08-07T08:54:20.281Z,506.25
2018-08-07T08:55:20.298Z,500.63
2018-08-07T08:56:20.328Z,495.00
2018-08-07T08:57:20.355Z,489.38
2018-08-07T08:58:20.381Z,483.75
2018-08-07T08:59:20.410Z,478.13
2018-08-07T09:00:20.434Z,478.13
2018-08-07T09:01:20.463Z,472.50
2018-08-07T09:02:20.495Z,466.88
2018-08-07T09:03:20.576Z,466.88
2018-08-07T09:04:20.546Z,461.25
2018-08-07T09:05:20.573Z,461.25
2018-08-07T09:06:20.602Z,455.63
2018-08-07T09:07:20.629Z,455.63
2018-08-07T09:08:20.655Z,450.00
2018-08-07T09:09:20.686Z,450.00
2018-08-07T09:10:20.726Z,450.00
2018-08-07T09:11:20.873Z,444.38
2018-08-07T09:12:20.763Z,444.38
2018-08-07T09:13:20.804Z,444.38
2018-08-07T09:14:20.818Z,438.75
2018-08-07T09:15:20.846Z,438.75
2018-08-07T09:16:20.875Z,433.13
2018-08-07T09:17:20.898Z,433.13
2018-08-07T09:18:20.924Z,433.13
2018-08-07T09:19:20.951Z,427.50
2018-08-07T09:20:20.980Z,427.50
2018-08-07T09:21:21.021Z,421.88
2018-08-07T09:22:21.032Z,421.88
2018-08-07T09:23:21.061Z,421.88
2018-08-07T09:24:21.084Z,421.88
2018-08-07T09:25:21.145Z,416.25
2018-08-07T09:26:21.141Z,416.25
2018-08-07T09:27:21.168Z,410.63
2018-08-07T09:28:21.196Z,410.63
2018-08-07T09:29:21.218Z,405.00
2018-08-07T09:30:21.253Z,405.00
2018-08-07T09:31:21.283Z,405.00
2018-08-07T09:32:21.301Z,405.00
2018-08-07T09:33:21.333Z,399.38
2018-08-07T09:34:21.357Z,399.38
2018-08-07T09:35:21.382Z,399.38
2018-08-07T09:36:21.414Z,399.38
2018-08-07T09:37:21.438Z,393.75
2018-08-07T09:38:21.462Z,393.75
2018-08-07T09:39:21.488Z,393.75
2018-08-07T09:40:21.515Z,388.13
2018-08-07T09:41:21.545Z,388.13
2018-08-07T09:42:21.569Z,388.13
2018-08-07T09:43:21.596Z,388.13
2018-08-07T09:44:21.667Z,388.13
2018-08-07T09:45:21.649Z,382.50
2018-08-07T09:46:21.687Z,382.50
2018-08-07T09:47:21.705Z,376.88
2018-08-07T09:48:21.732Z,376.88
2018-08-07T09:49:21.755Z,376.88
2018-08-07T09:50:21.804Z,371.25
2018-08-07T09:51:21.807Z,371.25
2018-08-07T09:52:21.891Z,371.25
2018-08-07T09:53:21.865Z,365.63
2018-08-07T09:54:21.888Z,365.63
2018-08-07T09:55:21.917Z,365.63
2018-08-07T09:56:21.942Z,365.63
2018-08-07T09:57:21.971Z,371.25
2018-08-07T09:58:22.001Z,365.63
2018-08-07T09:59:22.147Z,360.00
2018-08-07T10:00:22.050Z,360.00
2018-08-07T10:01:22.078Z,360.00
2018-08-07T10:02:22.108Z,360.00
2018-08-07T10:03:22.130Z,365.63
2018-08-07T10:04:22.158Z,360.00
2018-08-07T10:05:22.278Z,354.38
2018-08-07T10:06:22.216Z,354.38
2018-08-07T10:07:22.242Z,354.38
2018-08-07T10:08:22.265Z,354.38
2018-08-07T10:09:22.293Z,348.75
2018-08-07T10:10:22.321Z,348.75
2018-08-07T10:11:22.348Z,348.75
2018-08-07T10:12:22.439Z,348.75
2018-08-07T10:13:22.400Z,348.75
2018-08-07T10:14:22.430Z,343.13
2018-08-07T10:15:22.454Z,343.13
2018-08-07T10:16:22.488Z,343.13
2018-08-07T10:17:22.511Z,337.50
2018-08-07T10:18:22.539Z,337.50
2018-08-07T10:19:22.566Z,337.50
2018-08-07T10:20:22.587Z,337.50
2018-08-07T10:21:22.622Z,331.88
2018-08-07T10:22:22.657Z,331.88
2018-08-07T10:23:22.689Z,331.88
2018-08-07T10:24:22.696Z,326.25
2018-08-07T10:25:22.724Z,326.25
2018-08-07T10:26:22.751Z,326.25
2018-08-07T10:27:22.780Z,320.63
2018-08-07T10:28:22.811Z,320.63
2018-08-07T10:29:22.832Z,320.63
2018-08-07T10:30:22.890Z,320.63
2018-08-07T10:31:22.915Z,320.63
2018-08-07T10:32:22.918Z,315.00
2018-08-07T10:33:22.943Z,315.00
2018-08-07T10:34:22.968Z,315.00
2018-08-07T10:35:23.007Z,315.00
2018-08-07T10:36:23.023Z,315.00
2018-08-07T10:37:23.051Z,315.00
2018-08-07T10:38:23.078Z,315.00
2018-08-07T10:39:23.107Z,315.00
2018-08-07T10:40:23.131Z,315.00
2018-08-07T10:41:23.257Z,315.00
2018-08-07T10:42:23.192Z,315.00
2018-08-07T10:43:23.303Z,315.00
2018-08-07T10:44:23.241Z,309.38
2018-08-07T10:45:23.269Z,315.00
2018-08-07T10:46:23.340Z,315.00
2018-08-07T10:47:23.321Z,315.00
2018-08-07T10:48:23.349Z,315.00
2018-08-07T10:49:23.377Z,320.63
2018-08-07T10:50:23.405Z,315.00
2018-08-07T10:51:23.438Z,315.00
2018-08-07T10:52:23.458Z,315.00
2018-08-07T10:53:23.490Z,315.00
2018-08-07T10:54:23.517Z,315.00
2018-08-07T10:55:23.541Z,315.00
2018-08-07T10:56:23.576Z,315.00
2018-08-07T10:57:23.595Z,315.00
2018-08-07T10:58:23.657Z,315.00
2018-08-07T10:59:23.648Z,315.00
2018-08-07T11:00:23.676Z,315.00
2018-08-07T11:01:23.705Z,315.00
2018-08-07T11:02:23.738Z,315.00
2018-08-07T11:03:23.758Z,315.00
2018-08-07T11:04:23.784Z,315.00
2018-08-07T11:05:23.813Z,315.00
2018-08-07T11:06:23.840Z,315.00
2018-08-07T11:07:23.867Z,315.00
2018-08-07T11:08:23.897Z,315.00
2018-08-07T11:09:23.921Z,315.00
2018-08-07T11:10:23.950Z,315.00
2018-08-07T11:11:23.978Z,315.00
2018-08-07T11:12:24.004Z,315.00
2018-08-07T11:13:24.034Z,320.63
2018-08-07T11:14:24.057Z,315.00
2018-08-07T11:15:24.093Z,320.63
2018-08-07T11:16:24.110Z,320.63
2018-08-07T11:17:24.140Z,320.63
2018-08-07T11:18:24.306Z,320.63
2018-08-07T11:19:24.193Z,320.63
2018-08-07T11:20:24.222Z,320.63
2018-08-07T11:21:24.259Z,320.63
2018-08-07T11:22:24.278Z,320.63
2018-08-07T11:23:24.305Z,320.63
2018-08-07T11:24:24.386Z,315.00
2018-08-07T11:25:24.359Z,320.63
2018-08-07T11:26:24.390Z,315.00
2018-08-07T11:27:24.413Z,315.00
2018-08-07T11:28:24.446Z,315.00
2018-08-07T11:29:24.468Z,320.63
2018-08-07T11:30:24.500Z,320.63
2018-08-07T11:31:24.523Z,320.63
2018-08-07T11:32:24.551Z,320.63
2018-08-07T11:33:24.582Z,326.25
2018-08-07T11:34:24.610Z,320.63
2018-08-07T11:35:24.634Z,320.63
2018-08-07T11:36:24.661Z,320.63
2018-08-07T11:37:24.690Z,320.63
2018-08-07T11:38:24.724Z,320.63
2018-08-07T11:39:24.748Z,320.63
2018-08-07T11:40:24.777Z,320.63
2018-08-07T11:41:24.860Z,326.25
2018-08-07T11:42:24.836Z,320.63
2018-08-07T11:43:24.858Z,320.63
2018-08-07T11:44:24.893Z,320.63
2018-08-07T11:45:24.916Z,320.63
2018-08-07T11:46:24.947Z,320.63
2018-08-07T11:47:24.972Z,320.63
2018-08-07T11:48:25.029Z,320.63
2018-08-07T11:49:25.030Z,320.63
2018-08-07T11:50:25.056Z,320.63
2018-08-07T11:51:25.084Z,326.25
2018-08-07T11:52:25.112Z,320.63
2018-08-07T11:53:25.140Z,320.63
2018-08-07T11:54:25.168Z,320.63
2018-08-07T11:55:25.195Z,320.63
2018-08-07T11:56:25.302Z,326.25
2018-08-07T11:57:25.250Z,320.63
2018-08-07T11:58:25.281Z,320.63
2018-08-07T11:59:25.306Z,320.63
2018-08-07T12:00:25.335Z,320.63
2018-08-07T12:01:25.363Z,320.63
2018-08-07T12:02:25.471Z,326.25
2018-08-07T12:03:25.418Z,326.25
2018-08-07T12:04:25.447Z,326.25
2018-08-07T12:05:25.473Z,326.25
2018-08-07T12:06:25.507Z,326.25
2018-08-07T12:07:25.531Z,326.25
2018-08-07T12:08:25.557Z,320.63
2018-08-07T12:09:25.586Z,320.63
2018-08-07T12:10:25.612Z,326.25
2018-08-07T12:11:25.640Z,326.25
2018-08-07T12:12:25.669Z,326.25
2018-08-07T12:13:25.700Z,326.25
2018-08-07T12:14:25.730Z,326.25
2018-08-07T12:15:25.751Z,326.25
2018-08-07T12:16:25.780Z,326.25
2018-08-07T12:17:25.811Z,326.25
2018-08-07T12:18:25.839Z,326.25
2018-08-07T12:19:25.867Z,326.25
2018-08-07T12:20:25.891Z,326.25
2018-08-07T12:21:25.926Z,326.25
2018-08-07T12:22:25.952Z,326.25
2018-08-07T12:23:25.981Z,326.25
2018-08-07T12:24:26.010Z,326.25
2018-08-07T12:25:26.033Z,331.88
2018-08-07T12:26:26.062Z,326.25
2018-08-07T12:27:26.090Z,326.25
2018-08-07T12:28:26.116Z,331.88
2018-08-07T12:29:26.148Z,331.88
2018-08-07T12:30:26.179Z,331.88
2018-08-07T12:31:26.200Z,331.88
2018-08-07T12:32:26.233Z,275.63
2018-08-07T12:33:26.255Z,309.38
2018-08-07T12:34:26.290Z,270.00
2018-08-07T12:35:26.319Z,270.00
2018-08-07T12:36:26.344Z,264.38
2018-08-07T12:37:26.375Z,331.88